»·PEaware :: N124AG KPSP-KVNY

N124AG :: KPSP-KVNY

FLIGHT INFORMATION

Flight Status: Arrived
Operator: Privately registered:
United States
More flights under this callsign
Pilot: Michael M. (17510)
Aircraft: PIPER PA-31T-620 CHEYENNE 2
(PAY2)
More flights by this aircraft type
Origin: KPSP Palm Springs Intl
United States
Destination: KVNY Van Nuys
United States
More flights between these airports :: More routes between these airports
Route: CATH1 PSP V388 DEWAY POM VNY
File this flight plan on PilotEdge
Remarks: TEC ROUTE PSPP2
Altitude:
(Current/Filed)
12,000ft
Speed:
(Current/Filed)
220kts
Departed: 05-Feb-21 12:32 PM
Arrived: 05-Feb-21 01:27 PM
Distance/Time
Traveled:
101nm/0:55
Distance/Time
To Go:
Arrived

Flight Plot

Page will automatically refresh every two minutes.

Flight plan parsing failed; only flown route is shown


Map Options




Map Legend


Flown Route
Filed Route
Departure Airport
Arrival Airport
Navaid (VOR, NDB)
Fix

Horizontal Profiles

Position Reports

Time Latitude Longitude Heading Altitude Ground
Speed
05-Feb-21 12:13 33.826911 -116.500477 320 426ft 0kts
05-Feb-21 12:14 33.826911 -116.500477 320 426ft 0kts
05-Feb-21 12:15 33.826911 -116.500477 320 426ft 0kts
05-Feb-21 12:16 33.826911 -116.500477 320 426ft 0kts
05-Feb-21 12:17 33.826911 -116.500477 320 426ft 0kts
05-Feb-21 12:18 33.826911 -116.500477 320 426ft 0kts
05-Feb-21 12:19 33.826911 -116.500477 320 426ft 0kts
05-Feb-21 12:20 33.826911 -116.500477 320 426ft 0kts
05-Feb-21 12:21 33.826911 -116.500477 320 426ft 0kts
05-Feb-21 12:22 33.826911 -116.500477 320 426ft 0kts
05-Feb-21 12:23 33.826911 -116.500477 320 426ft 0kts
05-Feb-21 12:24 33.826911 -116.500477 320 426ft 0kts
05-Feb-21 12:25 33.826911 -116.500477 320 426ft 0kts
05-Feb-21 12:26 33.826924 -116.500490 320 426ft 1kts
05-Feb-21 12:27 33.825724 -116.500339 149 426ft 10kts
05-Feb-21 12:28 33.824909 -116.499394 194 426ft 0kts
05-Feb-21 12:29 33.824689 -116.499506 236 426ft 0kts
05-Feb-21 12:30 33.824491 -116.500023 287 426ft 0kts
05-Feb-21 12:31 33.842362 -116.516744 320 882ft 140kts
05-Feb-21 12:32 33.873871 -116.547669 321 2108ft 149kts
05-Feb-21 12:33 33.907390 -116.555381 66 3409ft 143kts
05-Feb-21 12:34 33.898329 -116.509112 112 4512ft 150kts
05-Feb-21 12:35 33.881463 -116.461679 112 5451ft 158kts
05-Feb-21 12:36 33.862291 -116.411614 116 6165ft 167kts
05-Feb-21 12:37 33.841070 -116.361709 116 6864ft 167kts
05-Feb-21 12:38 33.812656 -116.369665 285 7550ft 162kts
05-Feb-21 12:39 33.838615 -116.413098 292 8178ft 164kts
05-Feb-21 12:40 33.855962 -116.464056 292 8779ft 164kts
05-Feb-21 12:41 33.872972 -116.514459 292 9508ft 157kts
05-Feb-21 12:42 33.888419 -116.560369 292 10544ft 141kts
05-Feb-21 12:43 33.902802 -116.603238 292 11354ft 142kts
05-Feb-21 12:44 33.918525 -116.650126 291 11879ft 156kts
05-Feb-21 12:45 33.936078 -116.702514 291 12007ft 181kts
05-Feb-21 12:46 33.951249 -116.762588 279 12005ft 193kts
05-Feb-21 12:47 33.959779 -116.827242 278 12004ft 197kts
05-Feb-21 12:48 33.968133 -116.892649 278 12003ft 198kts
05-Feb-21 12:49 33.976567 -116.959226 278 11768ft 210kts
05-Feb-21 12:50 33.985904 -117.033131 278 10791ft 231kts
05-Feb-21 12:51 33.995930 -117.112856 278 9502ft 241kts
05-Feb-21 12:52 34.005842 -117.192281 278 8499ft 238kts
05-Feb-21 12:53 34.015818 -117.272544 278 6978ft 252kts
05-Feb-21 12:55 34.025799 -117.353456 278 6026ft 235kts
05-Feb-21 12:56 34.034803 -117.426879 278 6001ft 212kts
05-Feb-21 12:57 34.043292 -117.496339 278 6003ft 207kts
05-Feb-21 12:58 34.051657 -117.565116 278 6003ft 206kts
05-Feb-21 12:59 34.059929 -117.633449 278 6003ft 206kts
05-Feb-21 13:00 34.068206 -117.702136 278 6003ft 206kts
05-Feb-21 13:01 34.076431 -117.770732 278 6003ft 206kts
05-Feb-21 13:02 34.089094 -117.838172 283 6003ft 206kts
05-Feb-21 13:03 34.103072 -117.905437 284 6003ft 206kts
05-Feb-21 13:04 34.117024 -117.972605 284 6003ft 206kts
05-Feb-21 13:05 34.130661 -118.040066 276 6000ft 206kts
05-Feb-21 13:06 34.132664 -118.109123 271 6003ft 206kts
05-Feb-21 13:07 34.134478 -118.178582 271 6003ft 206kts
05-Feb-21 13:08 34.136300 -118.247788 271 6003ft 206kts
05-Feb-21 13:09 34.138141 -118.317148 272 6003ft 206kts
05-Feb-21 13:10 34.139994 -118.386353 272 6003ft 206kts
05-Feb-21 13:11 34.141865 -118.455632 272 6003ft 206kts
05-Feb-21 13:12 34.143757 -118.525135 272 6003ft 206kts
05-Feb-21 13:13 34.173497 -118.570144 351 6006ft 205kts
05-Feb-21 13:13 34.220773 -118.578498 352 6003ft 206kts
05-Feb-21 13:15 34.292047 -118.590694 352 5012ft 227kts
05-Feb-21 13:15 34.342113 -118.599287 352 5002ft 212kts
05-Feb-21 13:16 34.395701 -118.608339 352 5001ft 183kts
05-Feb-21 13:17 34.445146 -118.616788 352 5003ft 177kts
05-Feb-21 13:18 34.481217 -118.592948 71 5006ft 174kts
05-Feb-21 13:19 34.475076 -118.541808 141 5007ft 173kts
05-Feb-21 13:20 34.437092 -118.505540 142 5003ft 174kts
05-Feb-21 13:21 34.392677 -118.489038 193 4856ft 181kts
05-Feb-21 13:22 34.340599 -118.501577 184 3837ft 194kts
05-Feb-21 13:23 34.298275 -118.499175 173 3014ft 134kts
05-Feb-21 13:24 34.262990 -118.495292 175 1904ft 117kts
05-Feb-21 13:25 34.229758 -118.492289 176 1117ft 112kts
05-Feb-21 13:26 34.205888 -118.490053 189 805ft 17kts
05-Feb-21 13:27 34.204273 -118.490776 259 805ft 0kts
05-Feb-21 13:28 34.204221 -118.491289 229 805ft 0kts

Navigation Log

Ident Type
Flight plan parsing failed, navigation log unavailable